Time;durP1;ratioP1;P1;durP2;ratioP2;P2;SDS_P1;SDS_P2;PMS_P1;PMS_P2;Temp;Humidity;BMP_temperature;BMP_pressure;BME280_temperature;BME280_humidity;BME280_pressure;Samples;Min_cycle;Max_cycle;Signal;HPM_P1;HPM_P2
2022/10/20 00:01:22;;;;;;;10.13;6.90;;;;;;;;;;5095737;28;20436;-76
2022/10/20 00:03:49;;;;;;;11.43;6.85;;;7.70;99.90;;;;;;5112674;28;20414;-77
2022/10/20 00:06:25;;;;;;;11.75;6.82;;;;;;;;;;5112750;28;20473;-77
2022/10/20 00:08:52;;;;;;;11.63;6.80;;;;;;;;;;5112408;28;20455;-77
2022/10/20 00:11:19;;;;;;;12.20;7.05;;;;;;;;;;5112540;28;20404;-77
2022/10/20 00:13:47;;;;;;;12.15;7.03;;;7.60;99.90;;;;;;5112515;28;20884;-78
2022/10/20 00:16:13;;;;;;;13.32;7.18;;;;;;;;;;5112194;28;20411;-78
2022/10/20 00:18:39;;;;;;;11.60;7.15;;;;;;;;;;5095570;28;20472;-78
2022/10/20 00:21:12;;;;;;;10.88;7.07;;;;;;;;;;5112470;28;20396;-74
2022/10/20 00:23:39;;;;;;;14.18;7.40;;;;;;;;;;5112042;28;20904;-74
2022/10/20 00:26:16;;;;;;;12.48;6.90;;;7.30;99.90;;;;;;5112416;28;20419;-72
2022/10/20 00:28:43;;;;;;;13.60;7.30;;;7.50;99.90;;;;;;5094899;28;20474;-73
2022/10/20 00:31:09;;;;;;;12.98;6.80;;;;;;;;;;5094668;28;20460;-73
2022/10/20 00:33:35;;;;;;;11.97;6.93;;;;;;;;;;5095242;28;20425;-73
2022/10/20 00:36:06;;;;;;;21.25;7.28;;;7.60;99.90;;;;;;5112161;28;20419;-73
2022/10/20 00:38:32;;;;;;;14.15;7.00;;;;;;;;;;5094967;28;20752;-72
2022/10/20 00:40:59;;;;;;;11.38;7.32;;;;;;;;;;5094582;28;20393;-73
2022/10/20 00:43:49;;;;;;;11.23;7.10;;;7.30;99.90;;;;;;5111523;28;20392;-74
2022/10/20 00:46:19;;;;;;;11.73;7.25;;;7.40;99.90;;;;;;5111790;28;20407;-73
2022/10/20 00:48:49;;;;;;;13.82;7.13;;;7.20;99.90;;;;;;5094697;28;20420;-73
2022/10/20 00:51:17;;;;;;;10.90;6.53;;;;;;;;;;5111635;28;20479;-74
2022/10/20 00:53:44;;;;;;;10.93;6.70;;;;;;;;;;5111568;28;20431;-73
2022/10/20 00:56:10;;;;;;;11.35;6.78;;;;;;;;;;5111744;28;20756;-73
2022/10/20 00:58:36;;;;;;;15.20;7.15;;;;;;;;;;5094688;28;20396;-73
2022/10/20 01:01:02;;;;;;;11.68;7.15;;;;;;;;;;5111410;28;20888;-73
2022/10/20 01:03:35;;;;;;;15.13;6.85;;;;;;;;;;5111676;28;20487;-72
2022/10/20 01:06:01;;;;;;;11.40;6.85;;;;;;;;;;5094411;28;20407;-73
2022/10/20 01:08:27;;;;;;;11.20;6.70;;;;;;;;;;5111173;28;20408;-73
2022/10/20 01:11:35;;;;;;;14.13;7.00;;;6.90;99.90;;;;;;5094579;28;20396;-74
2022/10/20 01:14:19;;;;;;;11.57;6.70;;;;;;;;;;5111266;28;20396;-74
2022/10/20 01:16:48;;;;;;;14.05;7.05;;;;;;;;;;5111118;28;20487;-74
2022/10/20 01:19:17;;;;;;;15.17;7.17;;;;;;;;;;5094405;28;20726;-74
2022/10/20 01:22:01;;;;;;;11.82;6.60;;;;;;;;;;5111082;28;20396;-74
2022/10/20 01:24:47;;;;;;;13.15;6.95;;;;;;;;;;5110984;28;20400;-74
2022/10/20 01:27:13;;;;;;;15.85;7.20;;;;;;;;;;5063540;28;20483;-73
2022/10/20 01:29:39;;;;;;;10.90;6.70;;;;;;;;;;5110542;28;20853;-73
2022/10/20 01:32:15;;;;;;;10.13;6.40;;;;;;;;;;5111262;28;20887;-73
2022/10/20 01:34:46;;;;;;;11.75;6.38;;;;;;;;;;5110852;28;20397;-73
2022/10/20 01:37:15;;;;;;;12.23;6.68;;;;;;;;;;5110593;28;20412;-74
2022/10/20 01:39:53;;;;;;;10.75;6.90;;;;;;;;;;5110651;28;20436;-74
2022/10/20 01:42:22;;;;;;;13.38;6.82;;;7.00;99.90;;;;;;5110699;28;20964;-73
2022/10/20 01:44:49;;;;;;;11.95;7.15;;;;;;;;;;5110820;28;21012;-73
2022/10/20 01:47:15;;;;;;;13.15;6.80;;;;;;;;;;5110588;28;20415;-73
2022/10/20 01:49:43;;;;;;;9.93;7.00;;;6.70;99.90;;;;;;5110749;28;20814;-73
2022/10/20 01:52:13;;;;;;;12.40;7.18;;;;;;;;;;5110163;28;20918;-73
2022/10/20 01:54:39;;;;;;;15.05;7.32;;;;;;;;;;5110684;28;20400;-73
2022/10/20 01:57:23;;;;;;;13.30;7.43;;;;;;;;;;5093659;28;20392;-73
2022/10/20 02:00:05;;;;;;;13.15;7.68;;;;;;;;;;5110468;28;20910;-73
2022/10/20 02:02:43;;;;;;;10.98;7.45;;;;;;;;;;5093668;28;20460;-73
2022/10/20 02:05:13;;;;;;;12.98;7.30;;;6.70;99.90;;;;;;5093964;28;20405;-73
2022/10/20 02:07:41;;;;;;;16.10;7.77;;;6.40;99.90;;;;;;5110483;28;20421;-73
2022/10/20 02:10:22;;;;;;;12.77;7.70;;;6.60;99.90;;;;;;5110420;28;20912;-73
2022/10/20 02:12:52;;;;;;;14.70;7.88;;;6.60;99.90;;;;;;5110378;28;20412;-73
2022/10/20 02:15:21;;;;;;;14.97;7.93;;;;;;;;;;5093819;28;20439;-73
2022/10/20 02:17:48;;;;;;;12.17;7.37;;;;;;;;;;5110408;28;20449;-73
2022/10/20 02:20:15;;;;;;;15.60;7.10;;;;;;;;;;5110406;28;20475;-73
2022/10/20 02:22:41;;;;;;;12.68;7.72;;;;;;;;;;5110304;28;20457;-74
2022/10/20 02:25:11;;;;;;;12.77;8.13;;;6.50;99.90;;;;;;5093281;28;20401;-74
2022/10/20 02:27:39;;;;;;;12.82;7.53;;;6.50;99.90;;;;;;5093198;28;20404;-73
2022/10/20 02:30:08;;;;;;;14.00;7.90;;;;;;;;;;5093201;28;20460;-73
2022/10/20 02:32:36;;;;;;;16.92;8.27;;;6.70;99.90;;;;;;5093442;28;20831;-73
2022/10/20 02:35:09;;;;;;;17.10;8.38;;;6.40;99.90;;;;;;5093373;28;20479;-72
2022/10/20 02:37:35;;;;;;;13.32;7.97;;;;;;;;;;5110037;28;20404;-73
2022/10/20 02:40:01;;;;;;;14.90;7.68;;;;;;;;;;5092997;28;20408;-72
2022/10/20 02:42:27;;;;;;;14.02;8.30;;;;;;;;;;5110355;28;20400;-73
2022/10/20 02:44:54;;;;;;;16.02;8.15;;;;;;;;;;5110155;28;20404;-73
2022/10/20 02:47:21;;;;;;;13.88;8.30;;;;;;;;;;5111398;28;20396;-72
2022/10/20 02:49:47;;;;;;;12.90;7.95;;;;;;;;;;5110102;28;20424;-72
2022/10/20 02:52:14;;;;;;;13.93;8.35;;;6.40;99.90;;;;;;5109920;28;20432;-74
2022/10/20 02:54:40;;;;;;;14.65;8.15;;;;;;;;;;5110336;28;20450;-74
2022/10/20 02:57:06;;;;;;;11.60;7.73;;;;;;;;;;5110115;28;20435;-74
2022/10/20 02:59:32;;;;;;;12.65;8.07;;;;;;;;;;5109994;28;20412;-74
2022/10/20 03:01:58;;;;;;;17.13;8.23;;;;;;;;;;5110048;28;20403;-74
2022/10/20 03:04:24;;;;;;;14.27;8.35;;;;;;;;;;5111103;28;20756;-74
2022/10/20 03:06:50;;;;;;;13.65;8.38;;;;;;;;;;5096687;28;20419;-74
2022/10/20 03:09:16;;;;;;;16.33;8.20;;;;;;;;;;5113287;28;20420;-74
2022/10/20 03:11:42;;;;;;;14.00;8.90;;;;;;;;;;5096358;28;20475;-72
2022/10/20 03:14:09;;;;;;;13.38;8.73;;;6.10;99.90;;;;;;5113225;28;20897;-73
2022/10/20 03:16:35;;;;;;;16.30;8.95;;;;;;;;;;5113193;28;20397;-73
2022/10/20 03:19:01;;;;;;;14.30;8.70;;;;;;;;;;5113304;28;20399;-73
2022/10/20 03:21:27;;;;;;;16.17;8.57;;;;;;;;;;5113468;28;20744;-74
2022/10/20 03:23:54;;;;;;;16.70;8.80;;;;;;;;;;5113563;28;20817;-73
2022/10/20 03:26:20;;;;;;;16.25;9.27;;;;;;;;;;5096092;28;20443;-73
2022/10/20 03:28:46;;;;;;;15.60;9.20;;;;;;;;;;5112975;28;21032;-74
2022/10/20 03:31:12;;;;;;;15.40;9.02;;;;;;;;;;5096171;28;20405;-73
2022/10/20 03:33:38;;;;;;;15.95;9.05;;;;;;;;;;5095890;28;20400;-74
2022/10/20 03:36:04;;;;;;;16.27;9.73;;;;;;;;;;5112997;28;20903;-73
2022/10/20 03:38:30;;;;;;;15.20;9.67;;;;;;;;;;5112998;28;20404;-73
2022/10/20 03:40:56;;;;;;;20.60;9.75;;;;;;;;;;5113027;28;20809;-74
2022/10/20 03:43:22;;;;;;;17.58;9.35;;;;;;;;;;5112915;28;20483;-73
2022/10/20 03:45:48;;;;;;;17.48;10.15;;;;;;;;;;5095776;28;20403;-74
2022/10/20 03:48:15;;;;;;;14.48;9.38;;;;;;;;;;5095888;28;20399;-74
2022/10/20 03:50:41;;;;;;;13.93;9.50;;;;;;;;;;5112570;28;20930;-73
2022/10/20 03:53:08;;;;;;;15.25;9.88;;;;;;;;;;5112800;28;20405;-73
2022/10/20 03:55:36;;;;;;;15.88;10.43;;;6.40;99.90;;;;;;5112818;28;20529;-74
2022/10/20 03:58:02;;;;;;;15.13;9.67;;;;;;;;;;5112895;28;20851;-73
2022/10/20 04:00:28;;;;;;;15.02;10.35;;;;;;;;;;5095461;28;20884;-74
2022/10/20 04:02:54;;;;;;;14.50;9.95;;;;;;;;;;5112552;28;20476;-74
2022/10/20 04:05:21;;;;;;;18.35;9.88;;;;;;;;;;5112318;28;20396;-74
2022/10/20 04:07:47;;;;;;;17.02;10.35;;;;;;;;;;5112600;28;20404;-74
2022/10/20 04:10:14;;;;;;;15.13;10.02;;;;;;;;;;5112287;28;20566;-73
2022/10/20 04:12:40;;;;;;;15.40;10.03;;;;;;;;;;5112445;28;20485;-73
2022/10/20 04:15:08;;;;;;;16.75;10.48;;;6.30;99.90;;;;;;5112144;28;20411;-73
2022/10/20 04:17:35;;;;;;;14.35;9.88;;;;;;;;;;5112386;28;20399;-73
2022/10/20 04:20:01;;;;;;;16.50;10.38;;;;;;;;;;5112046;28;20400;-73
2022/10/20 04:22:27;;;;;;;15.83;10.43;;;;;;;;;;5112414;28;20396;-73
2022/10/20 04:24:53;;;;;;;16.98;10.85;;;;;;;;;;5095174;28;20436;-73
2022/10/20 04:27:20;;;;;;;17.98;10.95;;;;;;;;;;5111934;28;20404;-74
2022/10/20 04:29:46;;;;;;;18.33;11.60;;;6.30;99.90;;;;;;5111738;28;20477;-74
2022/10/20 04:32:12;;;;;;;16.80;11.23;;;;;;;;;;5111881;28;20443;-74
2022/10/20 04:34:38;;;;;;;17.87;10.47;;;;;;;;;;5112124;28;20813;-72
2022/10/20 04:37:04;;;;;;;16.27;11.75;;;;;;;;;;5111817;28;20396;-73
2022/10/20 04:39:30;;;;;;;16.97;10.90;;;;;;;;;;5111868;28;20594;-74
2022/10/20 04:41:56;;;;;;;16.75;10.98;;;;;;;;;;5094858;28;20396;-75
2022/10/20 04:44:23;;;;;;;16.63;12.00;;;;;;;;;;5111580;28;20396;-73
2022/10/20 04:46:49;;;;;;;16.67;11.83;;;;;;;;;;5111771;28;20400;-73
2022/10/20 04:49:15;;;;;;;17.70;11.80;;;;;;;;;;5111512;28;20502;-74
2022/10/20 04:51:41;;;;;;;16.17;11.90;;;;;;;;;;5094594;28;20393;-74
2022/10/20 04:54:07;;;;;;;18.05;12.07;;;;;;;;;;5111623;28;20403;-75
2022/10/20 04:56:33;;;;;;;20.30;11.75;;;;;;;;;;5111399;28;20424;-74
2022/10/20 04:58:59;;;;;;;16.38;11.57;;;;;;;;;;5111649;28;20858;-74
2022/10/20 05:01:27;;;;;;;17.90;12.03;;;6.30;99.90;;;;;;5111175;28;20483;-74
2022/10/20 05:03:54;;;;;;;17.13;12.20;;;;;;;;;;5094162;28;20396;-74
2022/10/20 05:06:29;;;;;;;17.75;12.27;;;6.30;99.90;;;;;;5111182;28;20404;-74
2022/10/20 05:08:57;;;;;;;18.85;11.90;;;6.70;99.90;;;;;;5111388;28;20511;-74
2022/10/20 05:11:24;;;;;;;18.83;12.75;;;;;;;;;;5094173;28;20466;-73
2022/10/20 05:13:50;;;;;;;19.17;12.70;;;;;;;;;;5094243;28;20927;-73
2022/10/20 05:16:16;;;;;;;20.40;13.10;;;;;;;;;;5094038;28;20882;-72
2022/10/20 05:18:43;;;;;;;20.02;12.75;;;;;;;;;;5111377;28;20424;-73
2022/10/20 05:21:10;;;;;;;19.30;13.50;;;;;;;;;;5111010;28;20396;-74
2022/10/20 05:23:37;;;;;;;18.00;13.43;;;;;;;;;;5111988;28;20479;-73
2022/10/20 05:26:05;;;;;;;20.00;13.30;;;6.60;99.90;;;;;;5093980;28;20435;-74
2022/10/20 05:28:31;;;;;;;18.52;13.35;;;;;;;;;;5110156;28;20397;-74
2022/10/20 05:31:05;;;;;;;17.95;13.73;;;;;;;;;;5110444;28;20942;-74
2022/10/20 05:33:31;;;;;;;21.13;13.95;;;;;;;;;;5111004;28;20419;-73
2022/10/20 05:35:57;;;;;;;19.92;14.00;;;;;;;;;;5110703;28;20404;-74
2022/10/20 05:38:24;;;;;;;19.70;14.52;;;;;;;;;;5093798;28;20415;-74
2022/10/20 05:40:50;;;;;;;21.77;14.65;;;;;;;;;;5110570;28;20424;-74
2022/10/20 05:43:16;;;;;;;23.05;14.13;;;;;;;;;;5110669;28;20404;-74
2022/10/20 05:45:42;;;;;;;27.48;16.90;;;;;;;;;;5093982;28;20572;-73
2022/10/20 05:48:08;;;;;;;20.35;15.40;;;;;;;;;;5110939;28;20879;-73
2022/10/20 05:50:34;;;;;;;31.33;20.58;;;;;;;;;;5093596;28;20416;-73
2022/10/20 05:53:00;;;;;;;23.88;16.25;;;;;;;;;;5093955;28;20432;-73
2022/10/20 05:55:26;;;;;;;23.05;15.82;;;;;;;;;;5110871;28;20419;-73
2022/10/20 05:57:52;;;;;;;26.65;18.67;;;;;;;;;;5093420;28;20400;-74
2022/10/20 06:00:28;;;;;;;21.97;17.77;;;;;;;;;;5093835;28;20493;-74
2022/10/20 06:02:54;;;;;;;21.08;15.43;;;;;;;;;;5110926;28;20802;-74
2022/10/20 06:05:20;;;;;;;22.90;16.65;;;;;;;;;;5110520;28;20461;-74
2022/10/20 06:07:46;;;;;;;23.15;16.52;;;;;;;;;;5110392;28;20967;-74
2022/10/20 06:10:12;;;;;;;27.65;16.35;;;;;;;;;;5110516;28;20818;-73
2022/10/20 06:12:38;;;;;;;22.67;16.25;;;;;;;;;;5093660;28;20476;-74
2022/10/20 06:15:05;;;;;;;21.73;16.73;;;;;;;;;;5110511;28;20403;-74
2022/10/20 06:17:31;;;;;;;23.08;16.40;;;;;;;;;;5093567;28;20414;-74
2022/10/20 06:19:57;;;;;;;23.50;16.77;;;;;;;;;;5110236;28;20503;-74
2022/10/20 06:22:23;;;;;;;21.90;16.33;;;;;;;;;;5093976;28;20418;-74
2022/10/20 06:24:49;;;;;;;21.70;16.50;;;;;;;;;;5110821;28;20392;-74
2022/10/20 06:27:15;;;;;;;21.60;16.55;;;;;;;;;;5094558;28;20405;-75
2022/10/20 06:29:41;;;;;;;24.02;17.05;;;;;;;;;;5110486;28;20425;-74
2022/10/20 06:32:07;;;;;;;23.75;17.25;;;;;;;;;;5110773;28;20411;-75
2022/10/20 06:34:33;;;;;;;23.33;17.63;;;;;;;;;;5076868;28;20396;-74
2022/10/20 06:36:59;;;;;;;22.83;16.23;;;;;;;;;;5110494;28;20730;-74
2022/10/20 06:39:25;;;;;;;21.48;16.95;;;;;;;;;;5113176;28;20942;-73
2022/10/20 06:41:53;;;;;;;21.67;16.17;;;6.20;99.90;;;;;;5098075;28;20392;-74
2022/10/20 06:44:19;;;;;;;22.13;16.77;;;;;;;;;;5097711;28;20832;-74
2022/10/20 06:46:46;;;;;;;22.55;16.40;;;;;;;;;;5114542;28;20481;-73
2022/10/20 06:49:12;;;;;;;19.40;16.95;;;;;;;;;;5114014;28;20916;-73
2022/10/20 06:51:39;;;;;;;22.65;16.20;;;;;;;;;;5096981;28;20471;-73
2022/10/20 06:54:05;;;;;;;24.88;17.08;;;;;;;;;;5096836;28;20484;-74
2022/10/20 06:56:33;;;;;;;22.30;16.58;;;6.90;99.90;;;;;;5097095;28;20859;-74
2022/10/20 06:58:59;;;;;;;22.02;16.63;;;6.50;99.90;;;;;;5113829;28;20404;-74
2022/10/20 07:01:27;;;;;;;22.25;16.52;;;;;;;;;;5096591;28;20404;-74
2022/10/20 07:03:55;;;;;;;21.27;16.00;;;6.60;99.90;;;;;;5113675;28;20476;-74
2022/10/20 07:06:41;;;;;;;22.40;16.48;;;6.60;99.90;;;;;;5096556;28;20876;-72
2022/10/20 07:09:11;;;;;;;22.10;16.60;;;6.60;99.90;;;;;;5113424;28;20424;-74
2022/10/20 07:11:57;;;;;;;20.80;16.33;;;;;;;;;;5113647;28;20799;-73
2022/10/20 07:14:23;;;;;;;23.92;16.55;;;;;;;;;;5096719;28;20461;-73
2022/10/20 07:16:49;;;;;;;22.45;16.40;;;;;;;;;;5113316;28;20392;-73
2022/10/20 07:19:15;;;;;;;23.00;16.30;;;;;;;;;;5096207;28;20412;-73
2022/10/20 07:21:41;;;;;;;23.00;16.80;;;;;;;;;;5114025;28;20896;-73
2022/10/20 07:24:08;;;;;;;25.00;16.58;;;;;;;;;;5097140;28;20421;-73
2022/10/20 07:26:35;;;;;;;20.75;16.73;;;;;;;;;;5113618;28;20400;-74
2022/10/20 07:29:02;;;;;;;23.45;16.73;;;;;;;;;;5113202;28;20427;-74
2022/10/20 07:31:30;;;;;;;26.45;16.98;;;;;;;;;;5113680;28;20453;-74
2022/10/20 07:33:57;;;;;;;21.00;16.52;;;;;;;;;;5113655;28;20401;-74
2022/10/20 07:36:24;;;;;;;22.45;16.48;;;;;;;;;;5113177;28;20471;-74
2022/10/20 07:38:51;;;;;;;20.30;15.70;;;;;;;;;;5113173;28;20582;-74
2022/10/20 07:41:18;;;;;;;22.05;15.65;;;;;;;;;;5113521;28;20392;-74
2022/10/20 07:43:44;;;;;;;21.17;15.23;;;;;;;;;;5096290;28;20404;-74
2022/10/20 07:46:11;;;;;;;20.67;15.65;;;;;;;;;;5113306;28;20422;-74
2022/10/20 07:48:37;;;;;;;20.05;15.88;;;;;;;;;;5113128;28;20408;-74
2022/10/20 07:51:12;;;;;;;19.88;15.43;;;7.40;99.90;;;;;;5112388;28;20803;-73
2022/10/20 07:53:38;;;;;;;22.35;14.60;;;;;;;;;;5095777;28;20880;-74
2022/10/20 07:56:04;;;;;;;19.38;14.65;;;;;;;;;;5096298;28;20516;-74
2022/10/20 07:58:30;;;;;;;19.00;14.60;;;;;;;;;;5113589;28;20688;-73
2022/10/20 08:00:56;;;;;;;18.80;14.35;;;;;;;;;;5095715;28;20397;-74
2022/10/20 08:03:22;;;;;;;17.48;14.15;;;;;;;;;;5095694;28;20392;-74
2022/10/20 08:05:48;;;;;;;16.83;13.55;;;7.60;99.90;;;;;;5112460;28;20479;-75
2022/10/20 08:08:14;;;;;;;17.97;14.13;;;;;;;;;;5112587;28;20495;-75
2022/10/20 08:10:40;;;;;;;17.80;13.87;;;;;;;;;;5112314;28;20404;-75
2022/10/20 08:13:06;;;;;;;17.77;13.52;;;;;;;;;;5112345;28;20434;-74
2022/10/20 08:15:32;;;;;;;16.60;13.13;;;;;;;;;;5095139;28;20400;-74
2022/10/20 08:17:58;;;;;;;18.20;13.45;;;;;;;;;;5095314;28;20408;-75
2022/10/20 08:20:25;;;;;;;17.17;12.73;;;;;;;;;;5112250;28;20407;-74
2022/10/20 08:22:51;;;;;;;15.80;12.35;;;;;;;;;;5095584;28;20774;-75
2022/10/20 08:25:17;;;;;;;18.08;12.23;;;;;;;;;;5094887;28;20461;-75
2022/10/20 08:27:43;;;;;;;18.15;12.55;;;;;;;;;;5111946;28;20410;-75
2022/10/20 08:30:09;;;;;;;19.40;13.00;;;;;;;;;;5111954;28;20456;-74
2022/10/20 08:32:35;;;;;;;14.75;11.80;;;;;;;;;;5112109;28;20480;-75
2022/10/20 08:35:02;;;;;;;18.03;12.37;;;;;;;;;;5094926;28;20480;-75
2022/10/20 08:37:31;;;;;;;16.88;12.45;;;8.50;99.90;;;;;;5094709;28;20396;-75
2022/10/20 08:39:58;;;;;;;16.70;12.23;;;;;;;;;;5111757;28;20957;-75
2022/10/20 08:42:25;;;;;;;13.38;11.63;;;8.50;99.90;;;;;;5111773;28;20457;-73
2022/10/20 08:44:54;;;;;;;16.45;11.95;;;;;;;;;;5078415;28;20701;-73
2022/10/20 08:47:24;;;;;;;14.93;11.70;;;;;;;;;;5111441;28;20431;-73
2022/10/20 08:49:50;;;;;;;16.50;11.65;;;;;;;;;;5111811;28;20750;-74
2022/10/20 08:52:17;;;;;;;16.02;11.82;;;9.00;99.90;;;;;;5112059;28;20475;-74
2022/10/20 08:54:43;;;;;;;16.58;11.60;;;;;;;;;;5111621;28;20435;-74
2022/10/20 08:57:21;;;;;;;14.38;11.25;;;;;;;;;;5111599;28;20454;-74
2022/10/20 08:59:49;;;;;;;16.50;11.43;;;;;;;;;;5094625;28;20407;-74
2022/10/20 09:02:17;;;;;;;14.80;10.93;;;9.40;99.90;;;;;;5111522;28;20411;-74
2022/10/20 09:04:47;;;;;;;14.70;10.85;;;9.30;99.90;;;;;;5094338;28;20400;-74
2022/10/20 09:07:31;;;;;;;15.43;11.05;;;9.40;99.90;;;;;;5111018;28;20404;-74
2022/10/20 09:10:02;;;;;;;14.57;10.90;;;;;;;;;;5094112;28;20448;-74
2022/10/20 09:12:29;;;;;;;14.50;10.57;;;;;;;;;;5111166;28;20405;-74
2022/10/20 09:14:56;;;;;;;13.35;10.40;;;;;;;;;;5094160;28;20483;-74
2022/10/20 09:17:22;;;;;;;14.07;10.00;;;;;;;;;;5094472;28;20841;-74
2022/10/20 09:19:51;;;;;;;13.55;10.73;;;;;;;;;;5111523;28;20763;-73
2022/10/20 09:22:21;;;;;;;13.30;9.88;;;;;;;;;;5094418;28;20402;-74
2022/10/20 09:24:48;;;;;;;13.20;10.50;;;9.30;99.90;;;;;;5093862;28;20519;-73
2022/10/20 09:27:20;;;;;;;12.98;10.60;;;;;;;;;;5110713;28;20441;-73
2022/10/20 09:29:47;;;;;;;13.88;10.23;;;;;;;;;;5076466;28;20416;-73
2022/10/20 09:32:33;;;;;;;12.70;10.05;;;;;;;;;;5111136;28;20451;-73
2022/10/20 09:35:35;;;;;;;14.10;10.00;;;9.70;99.90;;;;;;5110760;28;20400;-75
2022/10/20 09:38:10;;;;;;;14.07;9.75;;;;;;;;;;5110843;28;20430;-75
2022/10/20 09:40:53;;;;;;;11.13;9.27;;;9.90;99.90;;;;;;5110917;28;20400;-74
2022/10/20 09:43:19;;;;;;;14.65;10.07;;;;;;;;;;5093877;28;20397;-75
2022/10/20 09:45:59;;;;;;;13.52;10.20;;;9.90;99.90;;;;;;5110825;28;20791;-74
2022/10/20 09:48:34;;;;;;;14.30;9.75;;;;;;;;;;5110932;28;20412;-74
2022/10/20 09:51:00;;;;;;;13.15;9.70;;;;;;;;;;5110663;28;20452;-74
2022/10/20 09:53:45;;;;;;;13.60;9.93;;;10.10;99.90;;;;;;5093686;28;20483;-73
2022/10/20 09:56:11;;;;;;;13.65;9.63;;;;;;;;;;5110584;28;20793;-74
2022/10/20 09:58:38;;;;;;;14.18;9.38;;;;;;;;;;5110552;28;20396;-73
2022/10/20 10:01:06;;;;;;;13.82;9.73;;;;;;;;;;5110871;28;20828;-74
2022/10/20 10:03:43;;;;;;;12.10;9.10;;;;;;;;;;5110743;28;20447;-74
2022/10/20 10:06:30;;;;;;;14.80;9.18;;;10.60;99.90;;;;;;5093719;28;20471;-74
2022/10/20 10:08:57;;;;;;;12.32;9.10;;;;;;;;;;5093364;28;20411;-73
2022/10/20 10:11:26;;;;;;;12.90;8.95;;;;;;;;;;5110459;28;20954;-74
2022/10/20 10:13:52;;;;;;;12.80;8.63;;;;;;;;;;5095083;28;20392;-74
2022/10/20 10:16:20;;;;;;;15.80;8.68;;;11.30;99.90;;;;;;5097327;28;20444;-75
2022/10/20 10:19:07;;;;;;;11.40;8.35;;;;;;;;;;5097493;28;20396;-72
2022/10/20 10:21:53;;;;;;;11.75;8.82;;;11.30;99.90;;;;;;5097559;28;20717;-73
2022/10/20 10:24:38;;;;;;;11.63;8.52;;;11.80;99.90;;;;;;5114472;28;20384;-73
2022/10/20 10:27:05;;;;;;;9.95;7.50;;;;;;;;;;5114595;28;20392;-73
2022/10/20 10:29:35;;;;;;;11.90;8.30;;;11.90;99.90;;;;;;5114122;28;20424;-74
2022/10/20 10:32:28;;;;;;;12.02;7.93;;;12.00;99.90;;;;;;5114389;28;20418;-73
2022/10/20 10:35:03;;;;;;;12.45;8.35;;;;;;;;;;5090462;28;20404;-73
2022/10/20 10:37:30;;;;;;;10.48;8.18;;;11.90;99.90;;;;;;5097426;28;20400;-72
2022/10/20 10:39:56;;;;;;;17.10;8.32;;;;;;;;;;5114160;28;20407;-73
2022/10/20 10:42:41;;;;;;;11.60;7.88;;;;;;;;;;5097111;28;20396;-74
2022/10/20 10:45:07;;;;;;;14.02;7.80;;;;;;;;;;5114109;28;20452;-73
2022/10/20 10:47:34;;;;;;;10.70;7.90;;;;;;;;;;5114061;28;20400;-77
2022/10/20 10:50:09;;;;;;;10.38;7.43;;;;;;;;;;5113895;28;20416;-77
2022/10/20 10:52:35;;;;;;;10.68;7.50;;;;;;;;;;5113920;28;20397;-77
2022/10/20 10:55:10;;;;;;;9.73;7.60;;;;;;;;;;5096878;28;20396;-77
2022/10/20 10:57:51;;;;;;;12.57;7.67;;;;;;;;;;5114077;28;20392;-78
2022/10/20 11:00:32;;;;;;;9.85;7.68;;;12.30;99.90;;;;;;5097196;28;20401;-77
2022/10/20 11:03:16;;;;;;;12.68;7.47;;;12.70;99.90;;;;;;5097059;28;20487;-78
2022/10/20 11:06:00;;;;;;;10.65;7.90;;;12.50;99.90;;;;;;5113779;28;20912;-78
2022/10/20 11:08:29;;;;;;;9.50;7.70;;;;;;;;;;5096871;28;20396;-78
2022/10/20 11:10:57;;;;;;;11.18;7.47;;;;;;;;;;5113516;28;20495;-78
2022/10/20 11:13:38;;;;;;;11.98;7.32;;;;;;;;;;5096318;28;20904;-77
2022/10/20 11:16:13;;;;;;;12.18;7.80;;;;;;;;;;5096544;28;20402;-78
2022/10/20 11:18:39;;;;;;;12.88;7.28;;;;;;;;;;5096326;28;20428;-78
2022/10/20 11:21:11;;;;;;;11.70;7.63;;;12.90;99.90;;;;;;5096419;28;20400;-78
2022/10/20 11:23:52;;;;;;;13.57;8.40;;;12.90;99.90;;;;;;5113715;28;20400;-78
2022/10/20 11:26:25;;;;;;;11.93;8.30;;;12.50;99.90;;;;;;5112150;28;20395;-77
2022/10/20 11:28:52;;;;;;;11.57;8.23;;;;;;;;;;5112823;28;20432;-74
2022/10/20 11:31:45;;;;;;;9.73;7.72;;;;;;;;;;5112980;28;20408;-74
2022/10/20 11:34:19;;;;;;;12.48;8.27;;;12.90;99.90;;;;;;5110242;28;20400;-72
2022/10/20 11:37:12;;;;;;;15.63;8.55;;;12.70;99.90;;;;;;5096197;28;20400;-74
2022/10/20 11:40:01;;;;;;;12.45;8.70;;;12.70;99.90;;;;;;5095968;28;20426;-74
2022/10/20 11:42:41;;;;;;;10.98;8.80;;;;;;;;;;5113794;28;20400;-74
2022/10/20 11:45:38;;;;;;;11.25;8.40;;;12.80;99.90;;;;;;5112984;28;20400;-74
2022/10/20 11:48:21;;;;;;;11.73;8.40;;;12.80;99.90;;;;;;5113378;28;20467;-73
2022/10/20 11:50:58;;;;;;;15.90;9.05;;;;;;;;;;5095559;28;20505;-74
2022/10/20 11:53:38;;;;;;;13.70;9.38;;;;;;;;;;5095603;28;20425;-74
2022/10/20 11:56:04;;;;;;;13.23;9.43;;;;;;;;;;5095778;28;20399;-74
2022/10/20 11:58:42;;;;;;;16.80;8.70;;;;;;;;;;5112670;28;20424;-74
2022/10/20 12:01:14;;;;;;;11.57;8.57;;;;;;;;;;5095637;28;20420;-74
2022/10/20 12:04:05;;;;;;;12.30;9.50;;;12.80;99.90;;;;;;5095887;28;20629;-74
2022/10/20 12:06:31;;;;;;;13.25;9.15;;;;;;;;;;5112498;28;20492;-78
2022/10/20 12:09:04;;;;;;;12.82;9.48;;;;;;;;;;5112510;28;20404;-78
2022/10/20 12:11:34;;;;;;;12.23;9.40;;;;;;;;;;5112714;28;21013;-78
2022/10/20 12:14:06;;;;;;;19.98;9.98;;;;;;;;;;5112872;28;20400;-77
2022/10/20 12:16:58;;;;;;;16.05;9.88;;;;;;;;;;5112722;28;20396;-77
2022/10/20 12:19:32;;;;;;;15.10;9.52;;;12.90;99.90;;;;;;5089003;28;20495;-77
2022/10/20 12:22:01;;;;;;;13.88;9.90;;;12.90;99.90;;;;;;5095308;28;20404;-78
2022/10/20 12:24:29;;;;;;;15.30;10.60;;;;;;;;;;5111941;28;20400;-77
2022/10/20 12:27:07;;;;;;;12.30;9.60;;;;;;;;;;5095558;28;20748;-77
2022/10/20 12:29:33;;;;;;;13.73;10.63;;;;;;;;;;5112276;28;20912;-77
2022/10/20 12:32:24;;;;;;;17.58;11.05;;;12.60;99.90;;;;;;5112184;28;20399;-78
2022/10/20 12:34:58;;;;;;;16.65;11.32;;;12.20;99.90;;;;;;5095092;28;20763;-77
2022/10/20 12:37:24;;;;;;;14.02;11.95;;;;;;;;;;5095057;28;20404;-78
2022/10/20 12:39:55;;;;;;;15.03;12.47;;;12.10;99.90;;;;;;5112044;28;20766;-77
2022/10/20 12:42:22;;;;;;;18.05;12.40;;;;;;;;;;5112225;28;20769;-77
2022/10/20 12:44:48;;;;;;;17.13;12.10;;;;;;;;;;5094814;28;20400;-78
2022/10/20 12:47:26;;;;;;;16.35;11.07;;;12.30;99.90;;;;;;5112539;28;20812;-76
2022/10/20 12:49:52;;;;;;;15.20;11.80;;;;;;;;;;5112122;28;20420;-77
2022/10/20 12:52:20;;;;;;;15.75;11.70;;;;;;;;;;5112284;28;20392;-78
2022/10/20 12:54:47;;;;;;;16.73;11.77;;;;;;;;;;5112025;28;20963;-77
2022/10/20 12:57:40;;;;;;;15.30;11.70;;;12.10;99.90;;;;;;5111645;28;20477;-75
2022/10/20 13:00:07;;;;;;;15.88;11.52;;;;;;;;;;5094858;28;20474;-75
2022/10/20 13:03:23;;;;;;;19.27;11.55;;;12.10;99.90;;;;;;5111697;28;20392;-74
2022/10/20 13:05:48;;;;;;;15.35;11.55;;;12.20;99.90;;;;;;5090033;28;20489;-75
2022/10/20 13:08:21;;;;;;;15.13;11.98;;;;;;;;;;5111978;28;20401;-75
2022/10/20 13:10:48;;;;;;;16.55;12.45;;;12.00;99.90;;;;;;5094643;28;20493;-74
2022/10/20 13:13:17;;;;;;;17.00;12.43;;;;;;;;;;5095350;28;20393;-75
2022/10/20 13:15:43;;;;;;;19.90;12.45;;;;;;;;;;5095008;28;20407;-74
2022/10/20 13:18:11;;;;;;;46.35;15.15;;;11.90;99.90;;;;;;5111993;28;20404;-74
2022/10/20 13:20:50;;;;;;;27.83;12.98;;;;;;;;;;5111978;28;20483;-74
2022/10/20 13:23:22;;;;;;;16.50;12.83;;;12.00;99.90;;;;;;5094533;28;20522;-74
2022/10/20 13:25:50;;;;;;;17.50;12.70;;;;;;;;;;5111391;28;20445;-74
2022/10/20 13:28:17;;;;;;;15.95;12.27;;;;;;;;;;5111568;28;20432;-74
2022/10/20 13:30:52;;;;;;;17.20;13.55;;;;;;;;;;5110741;28;20428;-74
2022/10/20 13:33:33;;;;;;;17.17;13.53;;;12.00;99.90;;;;;;5112025;28;20428;-74
2022/10/20 13:36:28;;;;;;;17.10;13.45;;;12.20;99.90;;;;;;5094047;28;20482;-74
2022/10/20 13:39:05;;;;;;;16.25;13.90;;;12.20;99.90;;;;;;5111240;28;20887;-74
2022/10/20 13:41:31;;;;;;;19.63;14.10;;;;;;;;;;5110941;28;20479;-74
2022/10/20 13:43:57;;;;;;;21.30;14.43;;;;;;;;;;5111408;28;20392;-74
2022/10/20 13:46:36;;;;;;;18.40;14.45;;;11.80;99.90;;;;;;5094247;28;20444;-73
2022/10/20 13:49:05;;;;;;;20.75;16.48;;;;;;;;;;5109825;28;20414;-74
2022/10/20 13:51:40;;;;;;;19.90;14.82;;;;;;;;;;5110642;28;20407;-73
2022/10/20 13:54:06;;;;;;;19.58;16.02;;;;;;;;;;5110871;28;20412;-75
2022/10/20 13:56:34;;;;;;;22.58;15.93;;;;;;;;;;5110975;28;20388;-74
2022/10/20 13:59:16;;;;;;;22.10;16.35;;;11.80;99.90;;;;;;5110352;28;20444;-75
2022/10/20 14:01:47;;;;;;;25.47;16.73;;;11.80;99.90;;;;;;5110343;28;20397;-75
2022/10/20 14:04:22;;;;;;;24.05;16.73;;;;;;;;;;5110546;28;20404;-74
2022/10/20 14:06:48;;;;;;;24.33;16.88;;;;;;;;;;5110476;28;20392;-75
2022/10/20 14:09:20;;;;;;;24.33;16.93;;;12.00;99.90;;;;;;5093746;28;20452;-74
2022/10/20 14:11:50;;;;;;;26.08;18.52;;;11.80;99.90;;;;;;5110394;28;20392;-75